Impacts METAR Board
IDs:

KSEA - Seattle-Tacoma Intl, WA, US

Updated at: 0800 UTC 24 Sep 2018
Potential Impact None Slight Moderate High
Time 23/20Z 23/21Z 23/22Z 23/23Z 24/00Z 24/01Z 24/02Z 24/03Z 24/04Z 24/05Z 24/06Z 24/07Z 24/08Z
Temp63 63 64 64 65 63 60 58 59 59 56 55 54
Dewpt42 44 41 43 41 39 38 41 45 44 44 45 45
Altim30.18 30.17 30.17 30.16 30.16 30.16 30.16 30.17 30.18 30.18 30.19 30.19 30.20
VIS10 10 10 10 10 10 10 10 10 10 10 10 10
CIG-- -- 200 -- -- -- -- -- -- 65 -- -- --
CoverSCTSCTBKNFEWSCTSCTSCTFEWFEWBKNSCTCLRCLR
FltCatVFRVFRVFRVFRVFRVFRVFRVFRVFRVFRVFRVFRVFR
WX--------------------------
WDir2000025019027030033050500080
WSpd9 4 3 5 6 4 3 3 7 6 0 0 5
WGst-- -- -- -- -- -- -- -- -- -- -- -- --
Raw hourly METARs
KSEA 231953Z 20009KT 10SM FEW020 SCT050 17/06 A3018 RMK AO2 SLP226 T01720056 $
KSEA 232053Z VRB04KT 10SM FEW020 SCT038 SCT060 17/07 A3017 RMK AO2 SLP223 T01720067 58002 $
KSEA 232153Z VRB03KT 10SM FEW041 SCT060 BKN200 18/05 A3017 RMK AO2 SLP221 T01780050 $
KSEA 232253Z 25005KT 10SM FEW041 18/06 A3016 RMK AO2 SLP220 T01780061 $
KSEA 232353Z 19006KT 10SM SCT041 18/05 A3016 RMK AO2 SLP217 T01830050 10183 20139 57006 $
KSEA 240053Z 27004KT 10SM FEW041 SCT061 17/04 A3016 RMK AO2 SLP218 T01720039 $
KSEA 240153Z 30003KT 10SM FEW041 SCT060 16/03 A3016 RMK AO2 SLP219 T01560033 $
KSEA 240253Z 33003KT 10SM FEW060 14/05 A3017 RMK AO2 SLP222 T01440050 53004 $
KSEA 240353Z 05007KT 10SM FEW060 15/07 A3018 RMK AO2 SLP225 T01500072 $
KSEA 240453Z 05006KT 10SM BKN065 15/07 A3018 RMK AO2 SLP228 T01500067 $
KSEA 240553Z 00000KT 10SM SCT065 13/07 A3019 RMK AO2 SLP230 T01330067 10183 20133 51007 $
KSEA 240653Z 00000KT 10SM CLR 13/07 A3019 RMK AO2 SLP229 T01280072 $
KSEA 240753Z 08005KT 10SM CLR 12/07 A3020 RMK AO2 SLP232 T01220072 401830117 $



Page loaded:  08:15 UTC  |   01:15 AM Pacific  |   02:15 AM Mountain  |   03:15 AM Central  |   04:15 AM Eastern

 

ADVISORIES

FORECASTS

FORECASTS

OBSERVATIONS

USER TOOLS

ABOUT US